createdAt,value
2018-11-01T00:01:46.508Z,8.20
2018-11-01T00:04:21.199Z,8.20
2018-11-01T00:06:55.774Z,8.20
2018-11-01T00:09:30.375Z,8.30
2018-11-01T00:12:05.436Z,8.30
2018-11-01T00:14:40.733Z,8.30
2018-11-01T00:17:15.871Z,8.30
2018-11-01T00:19:50.505Z,8.30
2018-11-01T00:22:25.313Z,8.30
2018-11-01T00:24:59.984Z,8.40
2018-11-01T00:27:34.653Z,8.40
2018-11-01T00:30:09.989Z,8.50
2018-11-01T00:32:44.978Z,8.60
2018-11-01T00:35:20.107Z,8.60
2018-11-01T00:37:55.836Z,8.60
2018-11-01T00:40:30.229Z,8.60
2018-11-01T00:43:04.735Z,8.60
2018-11-01T00:45:39.209Z,8.60
2018-11-01T00:48:14.077Z,8.70
2018-11-01T00:50:48.725Z,8.70
2018-11-01T00:53:24.140Z,8.70
2018-11-01T00:55:59.097Z,8.60
2018-11-01T00:58:33.717Z,8.60
2018-11-01T01:01:09.165Z,8.50
2018-11-01T01:03:45.076Z,8.50
2018-11-01T01:06:19.655Z,8.50
2018-11-01T01:08:54.089Z,8.50
2018-11-01T01:11:28.545Z,8.50
2018-11-01T01:14:03.257Z,8.50
2018-11-01T01:16:38.268Z,8.50
2018-11-01T01:19:13.513Z,8.50
2018-11-01T01:21:47.981Z,8.50
2018-11-01T01:24:23.378Z,8.50
2018-11-01T01:26:59.769Z,8.50
2018-11-01T01:29:33.970Z,8.50
2018-11-01T01:32:08.547Z,8.50
2018-11-01T01:34:43.683Z,8.50
2018-11-01T01:37:18.510Z,8.50
2018-11-01T01:39:53.224Z,8.50
2018-11-01T01:42:33.357Z,8.50
2018-11-01T01:45:08.657Z,8.50
2018-11-01T01:47:43.340Z,8.50
2018-11-01T01:50:18.525Z,8.40
2018-11-01T01:52:53.341Z,8.40
2018-11-01T01:55:27.902Z,8.40
2018-11-01T01:58:02.563Z,8.40
2018-11-01T02:00:37.561Z,8.40
2018-11-01T02:03:12.278Z,8.40
2018-11-01T02:05:47.015Z,8.40
2018-11-01T02:08:21.754Z,8.40
2018-11-01T02:10:56.289Z,8.40
2018-11-01T02:13:30.853Z,8.40
2018-11-01T02:16:06.054Z,8.40
2018-11-01T02:18:41.308Z,8.40
2018-11-01T02:21:15.838Z,8.40
2018-11-01T02:23:50.668Z,8.30
2018-11-01T02:26:25.004Z,8.30
2018-11-01T02:28:59.556Z,8.20
2018-11-01T02:31:34.044Z,8.30
2018-11-01T02:34:08.685Z,8.20
2018-11-01T02:36:43.297Z,8.20
2018-11-01T02:39:17.982Z,8.30
2018-11-01T02:41:53.206Z,8.20
2018-11-01T02:44:28.467Z,8.20
2018-11-01T02:47:03.401Z,8.20
2018-11-01T02:49:37.828Z,8.20
2018-11-01T02:52:12.673Z,8.20
2018-11-01T02:54:47.903Z,8.20
2018-11-01T02:57:22.428Z,8.20
2018-11-01T02:59:56.946Z,8.10
2018-11-01T03:02:31.536Z,8.10
2018-11-01T03:05:07.026Z,8.10
2018-11-01T03:07:41.949Z,8.00
2018-11-01T03:10:16.926Z,8.00
2018-11-01T03:12:53.158Z,7.90
2018-11-01T03:15:27.885Z,7.80
2018-11-01T03:18:02.573Z,7.80
2018-11-01T03:20:37.409Z,7.80
2018-11-01T03:23:11.681Z,7.80
2018-11-01T03:25:47.000Z,7.80
2018-11-01T03:28:22.240Z,7.80
2018-11-01T03:30:56.849Z,7.80
2018-11-01T03:33:31.901Z,7.80
2018-11-01T03:36:07.208Z,7.80
2018-11-01T03:38:42.244Z,7.80
2018-11-01T03:41:17.491Z,7.80
2018-11-01T03:43:52.276Z,7.80
2018-11-01T03:46:26.970Z,7.80
2018-11-01T03:49:02.099Z,7.80
2018-11-01T03:51:36.735Z,7.80
2018-11-01T03:54:11.306Z,7.80
2018-11-01T03:56:45.920Z,7.80
2018-11-01T03:59:20.689Z,7.80
2018-11-01T04:01:55.706Z,7.80
2018-11-01T04:04:30.188Z,7.80
2018-11-01T04:07:05.218Z,7.80
2018-11-01T04:09:39.572Z,7.80
2018-11-01T04:12:14.121Z,7.80
2018-11-01T04:14:48.725Z,7.80
2018-11-01T04:17:23.278Z,7.80
2018-11-01T04:19:58.674Z,7.80
2018-11-01T04:22:33.590Z,7.70
2018-11-01T04:25:09.085Z,7.70
2018-11-01T04:27:43.785Z,7.70
2018-11-01T04:30:18.480Z,7.70
2018-11-01T04:32:53.337Z,7.70
2018-11-01T04:35:28.803Z,7.70
2018-11-01T04:38:03.045Z,7.70
2018-11-01T04:40:37.844Z,7.70
2018-11-01T04:43:12.423Z,7.60
2018-11-01T04:45:47.109Z,7.60
2018-11-01T04:48:21.677Z,7.60
2018-11-01T04:50:56.109Z,7.60
2018-11-01T04:53:30.771Z,7.60
2018-11-01T04:56:06.466Z,7.60
2018-11-01T04:58:41.215Z,7.60
2018-11-01T05:01:20.277Z,7.60
2018-11-01T05:03:54.951Z,7.60
2018-11-01T05:06:30.107Z,7.60
2018-11-01T05:09:06.893Z,7.70
2018-11-01T05:11:41.497Z,7.70
2018-11-01T05:14:16.135Z,7.60
2018-11-01T05:16:51.049Z,7.60
2018-11-01T05:19:26.687Z,7.60
2018-11-01T05:22:01.272Z,7.60
2018-11-01T05:24:36.064Z,7.50
2018-11-01T05:27:11.097Z,7.50
2018-11-01T05:29:45.332Z,7.50
2018-11-01T05:32:19.892Z,7.50
2018-11-01T05:34:54.505Z,7.50
2018-11-01T05:37:29.315Z,7.50
2018-11-01T05:40:04.461Z,7.60
2018-11-01T05:42:39.182Z,7.60
2018-11-01T05:45:13.865Z,7.60
2018-11-01T05:47:48.661Z,7.60
2018-11-01T05:50:22.918Z,7.60
2018-11-01T05:52:57.537Z,7.70
2018-11-01T05:55:32.098Z,7.70
2018-11-01T05:58:07.594Z,7.80
2018-11-01T06:00:42.179Z,7.90
2018-11-01T06:03:16.960Z,8.00
2018-11-01T06:05:51.705Z,8.00
2018-11-01T06:08:28.521Z,8.00
2018-11-01T06:11:02.913Z,8.00
2018-11-01T06:13:37.636Z,8.00
2018-11-01T06:16:12.169Z,8.00
2018-11-01T06:18:46.695Z,8.00
2018-11-01T06:21:21.334Z,8.00
2018-11-01T06:23:56.491Z,8.00
2018-11-01T06:26:31.696Z,8.00
2018-11-01T06:29:06.378Z,8.00
2018-11-01T06:31:41.102Z,7.90
2018-11-01T06:34:24.435Z,7.90
2018-11-01T06:36:59.564Z,7.90
2018-11-01T06:39:33.791Z,7.90
2018-11-01T06:42:08.552Z,7.90
2018-11-01T06:44:44.202Z,7.90
2018-11-01T06:47:19.633Z,7.90
2018-11-01T06:49:54.938Z,7.90
2018-11-01T06:52:29.367Z,7.90
2018-11-01T06:55:05.562Z,7.90
2018-11-01T06:57:40.809Z,8.00
2018-11-01T07:00:15.950Z,8.00
2018-11-01T07:02:50.293Z,8.00
2018-11-01T07:05:25.077Z,8.00
2018-11-01T07:07:59.574Z,8.10
2018-11-01T07:10:34.018Z,8.20
2018-11-01T07:13:08.610Z,8.30
2018-11-01T07:15:43.261Z,8.40
2018-11-01T07:18:18.014Z,8.50
2018-11-01T07:20:52.507Z,8.50
2018-11-01T07:23:27.066Z,8.60
2018-11-01T07:26:01.582Z,8.70
2018-11-01T07:28:36.057Z,8.80
2018-11-01T07:31:10.683Z,8.80
2018-11-01T07:33:45.452Z,8.90
2018-11-01T07:36:20.408Z,8.90
2018-11-01T07:38:55.145Z,9.00
2018-11-01T07:41:29.817Z,9.10
2018-11-01T07:44:04.670Z,9.20
2018-11-01T07:46:39.231Z,9.30
2018-11-01T07:49:13.984Z,9.40
2018-11-01T07:51:48.752Z,9.60
2018-11-01T07:54:23.263Z,9.90
2018-11-01T07:56:57.903Z,10.00
2018-11-01T07:59:32.690Z,10.20
2018-11-01T08:02:07.087Z,10.30
2018-11-01T08:04:41.829Z,10.30
2018-11-01T08:07:16.514Z,10.40
2018-11-01T08:09:51.083Z,10.40
2018-11-01T08:12:25.729Z,10.50
2018-11-01T08:15:00.257Z,10.50
2018-11-01T08:17:34.948Z,10.60
2018-11-01T08:20:11.298Z,10.60
2018-11-01T08:22:46.534Z,10.70
2018-11-01T08:25:20.752Z,10.70
2018-11-01T08:27:55.772Z,10.70
2018-11-01T08:30:30.089Z,10.80
2018-11-01T08:33:04.970Z,10.80
2018-11-01T08:35:39.275Z,10.90
2018-11-01T08:38:14.091Z,10.90
2018-11-01T08:40:48.687Z,10.90
2018-11-01T08:43:23.398Z,10.90
2018-11-01T08:45:58.193Z,11.00
2018-11-01T08:48:32.559Z,11.00
2018-11-01T08:51:07.050Z,11.00
2018-11-01T08:53:41.848Z,11.00
2018-11-01T08:56:16.945Z,11.00
2018-11-01T08:58:51.273Z,11.10
2018-11-01T09:01:25.942Z,11.10
2018-11-01T09:04:01.022Z,11.10
2018-11-01T09:06:35.178Z,11.20
2018-11-01T09:09:10.155Z,11.20
2018-11-01T09:11:44.617Z,11.20
2018-11-01T09:14:19.349Z,11.20
2018-11-01T09:16:54.099Z,11.30
2018-11-01T09:19:28.778Z,11.30
2018-11-01T09:22:03.492Z,11.30
2018-11-01T09:24:38.139Z,11.20
2018-11-01T09:27:12.872Z,11.20
2018-11-01T09:29:47.884Z,11.30
2018-11-01T09:32:22.183Z,11.30
2018-11-01T09:34:56.983Z,11.30
2018-11-01T09:37:32.050Z,11.30
2018-11-01T09:40:09.478Z,11.30
2018-11-01T09:42:44.482Z,11.30
2018-11-01T09:45:19.784Z,11.20
2018-11-01T09:47:54.214Z,11.20
2018-11-01T09:50:29.025Z,11.20
2018-11-01T09:53:03.631Z,11.20
2018-11-01T09:55:38.480Z,11.20
2018-11-01T09:58:13.103Z,11.20
2018-11-01T10:00:47.645Z,11.20
2018-11-01T10:03:22.298Z,11.20
2018-11-01T10:05:57.050Z,11.30
2018-11-01T10:08:31.889Z,11.30
2018-11-01T10:11:07.277Z,11.30
2018-11-01T10:13:42.402Z,11.30
2018-11-01T10:16:17.372Z,11.40
2018-11-01T10:18:52.831Z,11.40
2018-11-01T10:21:27.543Z,11.40
2018-11-01T10:24:02.210Z,11.40
2018-11-01T10:26:36.910Z,11.40
2018-11-01T10:29:11.562Z,11.50
2018-11-01T10:31:46.290Z,11.50
2018-11-01T10:34:21.548Z,11.60
2018-11-01T10:36:55.831Z,11.50
2018-11-01T10:39:30.434Z,11.60
2018-11-01T10:42:05.337Z,11.60
2018-11-01T10:44:39.789Z,11.60
2018-11-01T10:47:14.295Z,11.70
2018-11-01T10:49:48.905Z,11.70
2018-11-01T10:52:23.643Z,11.70
2018-11-01T10:54:58.459Z,11.80
2018-11-01T10:57:33.473Z,11.80
2018-11-01T11:00:18.159Z,11.90
2018-11-01T11:02:52.462Z,11.90
2018-11-01T11:05:27.221Z,12.00
2018-11-01T11:08:02.676Z,12.00
2018-11-01T11:10:37.011Z,12.10
2018-11-01T11:13:13.188Z,12.20
2018-11-01T11:15:47.905Z,12.20
2018-11-01T11:18:22.468Z,12.20
2018-11-01T11:20:57.521Z,12.20
2018-11-01T11:23:33.169Z,12.20
2018-11-01T11:26:09.511Z,12.30
2018-11-01T11:28:44.079Z,12.30
2018-11-01T11:31:18.837Z,12.40
2018-11-01T11:33:53.623Z,12.40
2018-11-01T11:36:27.903Z,12.40
2018-11-01T11:39:03.703Z,12.40
2018-11-01T11:41:38.625Z,12.50
2018-11-01T11:44:13.620Z,12.60
2018-11-01T11:46:48.450Z,12.60
2018-11-01T11:49:22.997Z,12.60
2018-11-01T11:51:58.283Z,12.70
2018-11-01T11:54:35.103Z,12.60
2018-11-01T11:57:11.076Z,12.70
2018-11-01T11:59:45.576Z,12.60
2018-11-01T12:02:26.518Z,12.60
2018-11-01T12:05:01.114Z,12.60
2018-11-01T12:07:38.221Z,12.70
2018-11-01T12:10:13.217Z,12.70
2018-11-01T12:12:48.199Z,12.80
2018-11-01T12:15:22.883Z,12.90
2018-11-01T12:17:57.566Z,12.80
2018-11-01T12:20:32.451Z,12.90
2018-11-01T12:23:07.834Z,12.90
2018-11-01T12:25:42.311Z,13.00
2018-11-01T12:28:17.120Z,13.00
2018-11-01T12:30:57.707Z,13.10
2018-11-01T12:33:32.890Z,13.10
2018-11-01T12:36:07.571Z,13.20
2018-11-01T12:38:42.345Z,13.20
2018-11-01T12:41:17.062Z,13.30
2018-11-01T12:43:51.562Z,13.30
2018-11-01T12:46:26.131Z,13.40
2018-11-01T12:49:00.742Z,13.40
2018-11-01T12:51:36.945Z,13.40
2018-11-01T12:54:11.908Z,13.50
2018-11-01T12:56:46.517Z,13.50
2018-11-01T12:59:21.403Z,13.50
2018-11-01T13:01:56.050Z,13.50
2018-11-01T13:04:30.673Z,13.50
2018-11-01T13:07:06.081Z,13.50
2018-11-01T13:09:40.907Z,13.50
2018-11-01T13:12:15.454Z,13.60
2018-11-01T13:14:50.230Z,13.60
2018-11-01T13:17:24.804Z,13.60
2018-11-01T13:19:59.479Z,13.60
2018-11-01T13:22:34.201Z,13.60
2018-11-01T13:25:11.215Z,13.60
2018-11-01T13:27:46.510Z,13.60
2018-11-01T13:30:20.792Z,13.60
2018-11-01T13:32:55.394Z,13.60
2018-11-01T13:35:30.076Z,13.60
2018-11-01T13:38:05.523Z,13.60
2018-11-01T13:40:40.978Z,13.70
2018-11-01T13:43:16.050Z,13.70
2018-11-01T13:45:51.552Z,13.70
2018-11-01T13:48:26.159Z,13.70
2018-11-01T13:51:00.697Z,13.70
2018-11-01T13:53:36.301Z,13.70
2018-11-01T13:56:11.058Z,13.70
2018-11-01T13:58:45.786Z,13.70
2018-11-01T14:01:21.572Z,13.70
2018-11-01T14:04:00.072Z,13.60
2018-11-01T14:09:12.175Z,13.60
2018-11-01T14:11:47.236Z,13.60
2018-11-01T14:14:22.028Z,13.60
2018-11-01T14:16:56.037Z,13.60
2018-11-01T14:19:30.529Z,13.70
2018-11-01T14:22:05.102Z,13.70
2018-11-01T14:24:39.765Z,13.70
2018-11-01T14:27:14.350Z,13.70
2018-11-01T14:29:49.385Z,13.80
2018-11-01T14:32:24.101Z,13.80
2018-11-01T14:34:58.874Z,13.90
2018-11-01T14:37:33.909Z,13.90
2018-11-01T14:40:11.365Z,14.00
2018-11-01T14:42:46.480Z,14.00
2018-11-01T14:45:20.736Z,14.00
2018-11-01T14:47:55.317Z,14.10
2018-11-01T14:50:29.875Z,14.10
2018-11-01T14:53:06.151Z,14.10
2018-11-01T14:55:41.236Z,14.10
2018-11-01T14:58:16.462Z,14.20
2018-11-01T15:00:49.919Z,14.20
2018-11-01T15:03:24.754Z,14.20
2018-11-01T15:05:58.973Z,14.20
2018-11-01T15:08:33.367Z,14.20
2018-11-01T15:11:08.010Z,14.20
2018-11-01T15:13:42.675Z,14.20
2018-11-01T15:18:57.805Z,14.10
2018-11-01T15:21:33.571Z,14.00
2018-11-01T15:26:53.167Z,13.90
2018-11-01T15:29:27.798Z,13.80
2018-11-01T15:32:03.932Z,13.70
2018-11-01T15:34:38.593Z,13.70
2018-11-01T15:37:16.458Z,13.60
2018-11-01T15:39:53.207Z,13.50
2018-11-01T15:42:28.330Z,13.40
2018-11-01T15:45:02.854Z,13.30
2018-11-01T15:47:38.198Z,13.30
2018-11-01T15:50:18.140Z,13.10
2018-11-01T15:53:01.155Z,13.00
2018-11-01T15:55:41.587Z,12.90
2018-11-01T15:58:16.307Z,12.80
2018-11-01T16:00:51.583Z,12.70
2018-11-01T16:03:26.420Z,12.60
2018-11-01T16:06:03.057Z,12.50
2018-11-01T16:08:40.179Z,12.40
2018-11-01T16:11:16.143Z,12.40
2018-11-01T16:13:51.099Z,12.20
2018-11-01T16:16:25.639Z,12.10
2018-11-01T16:19:00.899Z,12.00
2018-11-01T16:21:35.685Z,11.90
2018-11-01T16:24:12.536Z,11.80
2018-11-01T16:26:47.153Z,11.70
2018-11-01T16:29:22.389Z,11.60
2018-11-01T16:31:56.879Z,11.50
2018-11-01T16:34:32.767Z,11.40
2018-11-01T16:37:07.483Z,11.30
2018-11-01T16:39:43.506Z,11.20
2018-11-01T16:42:18.046Z,11.10
2018-11-01T16:44:54.543Z,11.00
2018-11-01T16:47:28.900Z,10.90
2018-11-01T16:50:03.911Z,10.90
2018-11-01T16:52:40.031Z,10.70
2018-11-01T16:55:14.474Z,10.70
2018-11-01T16:57:48.985Z,10.60
2018-11-01T17:00:27.057Z,10.50
2018-11-01T17:03:02.195Z,10.50
2018-11-01T17:05:40.178Z,10.40
2018-11-01T17:08:16.416Z,10.40
2018-11-01T17:10:50.750Z,10.30
2018-11-01T17:13:25.398Z,10.20
2018-11-01T17:15:59.846Z,10.10
2018-11-01T17:18:35.772Z,10.10
2018-11-01T17:21:10.906Z,10.00
2018-11-01T17:23:45.134Z,9.90
2018-11-01T17:26:20.227Z,9.90
2018-11-01T17:28:55.149Z,9.90
2018-11-01T17:31:29.872Z,9.80
2018-11-01T17:34:05.192Z,9.70
2018-11-01T17:36:39.904Z,9.70
2018-11-01T17:39:15.550Z,9.60
2018-11-01T17:41:50.418Z,9.60
2018-11-01T17:44:25.541Z,9.50
2018-11-01T17:47:00.131Z,9.50
2018-11-01T17:49:35.181Z,9.50
2018-11-01T17:52:10.152Z,9.40
2018-11-01T17:54:44.489Z,9.30
2018-11-01T17:57:19.105Z,9.30
2018-11-01T17:59:53.693Z,9.30
2018-11-01T18:02:28.297Z,9.30
2018-11-01T18:05:03.669Z,9.20
2018-11-01T18:07:40.173Z,9.20
2018-11-01T18:10:14.948Z,9.20
2018-11-01T18:12:49.833Z,9.10
2018-11-01T18:15:25.011Z,9.10
2018-11-01T18:17:59.530Z,9.10
2018-11-01T18:20:34.564Z,9.00
2018-11-01T18:23:10.551Z,9.00
2018-11-01T18:25:48.004Z,8.90
2018-11-01T18:28:25.380Z,8.90
2018-11-01T18:31:06.135Z,8.80
2018-11-01T18:33:44.308Z,8.80
2018-11-01T18:36:20.894Z,8.80
2018-11-01T18:38:56.308Z,8.70
2018-11-01T18:41:31.806Z,8.70
2018-11-01T18:44:06.777Z,8.60
2018-11-01T18:46:41.731Z,8.60
2018-11-01T18:49:17.097Z,8.60
2018-11-01T18:51:57.973Z,8.50
2018-11-01T18:54:32.451Z,8.50
2018-11-01T18:57:06.696Z,8.40
2018-11-01T18:59:41.197Z,8.40
2018-11-01T19:02:16.423Z,8.30
2018-11-01T19:04:51.467Z,8.30
2018-11-01T19:07:26.668Z,8.30
2018-11-01T19:10:01.326Z,8.20
2018-11-01T19:12:35.740Z,8.20
2018-11-01T19:15:11.764Z,8.20
2018-11-01T19:17:46.780Z,8.20
2018-11-01T19:20:21.885Z,8.10
2018-11-01T19:22:56.904Z,8.10
2018-11-01T19:25:31.381Z,8.00
2018-11-01T19:28:06.281Z,8.00
2018-11-01T19:30:40.474Z,8.00
2018-11-01T19:33:14.970Z,7.90
2018-11-01T19:35:49.533Z,7.90
2018-11-01T19:38:24.354Z,7.90
2018-11-01T19:40:59.520Z,7.90
2018-11-01T19:43:34.007Z,7.90
2018-11-01T19:46:08.603Z,7.90
2018-11-01T19:48:42.986Z,7.90
2018-11-01T19:51:17.819Z,7.90
2018-11-01T19:53:52.153Z,7.80
2018-11-01T19:56:26.658Z,7.80
2018-11-01T19:59:00.998Z,7.80
2018-11-01T20:01:35.806Z,7.80
2018-11-01T20:04:11.494Z,7.80
2018-11-01T20:06:46.625Z,7.80
2018-11-01T20:09:21.102Z,7.80
2018-11-01T20:11:55.713Z,7.80
2018-11-01T20:14:30.043Z,7.80
2018-11-01T20:17:05.620Z,7.80
2018-11-01T20:19:40.247Z,7.80
2018-11-01T20:22:14.751Z,7.80
2018-11-01T20:24:49.134Z,7.80
2018-11-01T20:27:24.561Z,7.70
2018-11-01T20:30:02.776Z,7.70
2018-11-01T20:32:37.557Z,7.70
2018-11-01T20:35:13.171Z,7.80
2018-11-01T20:37:47.349Z,7.80
2018-11-01T20:40:23.042Z,7.80
2018-11-01T20:42:57.682Z,7.80
2018-11-01T20:45:32.058Z,7.70
2018-11-01T20:48:06.791Z,7.70
2018-11-01T20:50:41.221Z,7.70
2018-11-01T20:53:17.525Z,7.70
2018-11-01T20:55:52.145Z,7.70
2018-11-01T20:58:26.618Z,7.70
2018-11-01T21:01:01.004Z,7.70
2018-11-01T21:03:45.729Z,7.60
2018-11-01T21:06:20.773Z,7.60
2018-11-01T21:08:55.047Z,7.60
2018-11-01T21:11:30.470Z,7.60
2018-11-01T21:14:05.507Z,7.50
2018-11-01T21:16:39.815Z,7.50
2018-11-01T21:19:14.817Z,7.50
2018-11-01T21:21:49.005Z,7.50
2018-11-01T21:24:23.694Z,7.40
2018-11-01T21:26:58.356Z,7.40
2018-11-01T21:29:33.004Z,7.40
2018-11-01T21:32:09.186Z,7.40
2018-11-01T21:34:44.234Z,7.40
2018-11-01T21:37:18.619Z,7.40
2018-11-01T21:39:53.351Z,7.40
2018-11-01T21:42:27.947Z,7.40
2018-11-01T21:45:03.843Z,7.40
2018-11-01T21:47:38.830Z,7.40
2018-11-01T21:50:15.547Z,7.30
2018-11-01T21:52:50.222Z,7.30
2018-11-01T21:55:25.197Z,7.30
2018-11-01T21:58:00.464Z,7.20
2018-11-01T22:00:36.560Z,7.20
2018-11-01T22:03:11.371Z,7.20
2018-11-01T22:05:47.179Z,7.10
2018-11-01T22:08:21.310Z,7.10
2018-11-01T22:10:55.945Z,7.10
2018-11-01T22:13:31.261Z,7.00
2018-11-01T22:16:11.218Z,7.00
2018-11-01T22:18:46.966Z,7.00
2018-11-01T22:21:21.395Z,7.00
2018-11-01T22:23:55.949Z,6.90
2018-11-01T22:26:31.419Z,6.90
2018-11-01T22:29:08.181Z,6.90
2018-11-01T22:31:42.676Z,6.90
2018-11-01T22:34:17.753Z,6.80
2018-11-01T22:36:52.005Z,6.80
2018-11-01T22:39:26.506Z,6.80
2018-11-01T22:42:01.372Z,6.80
2018-11-01T22:44:35.824Z,6.70
2018-11-01T22:47:10.342Z,6.70
2018-11-01T22:49:45.174Z,6.70
2018-11-01T22:52:19.529Z,6.70
2018-11-01T22:54:54.174Z,6.60
2018-11-01T22:57:28.798Z,6.60
2018-11-01T23:00:04.519Z,6.60
2018-11-01T23:02:38.993Z,6.60
2018-11-01T23:05:13.630Z,6.60
2018-11-01T23:07:48.142Z,6.50
2018-11-01T23:10:23.017Z,6.60
2018-11-01T23:12:57.673Z,6.50
2018-11-01T23:15:32.345Z,6.50
2018-11-01T23:18:07.050Z,6.50
2018-11-01T23:20:41.606Z,6.50
2018-11-01T23:23:16.232Z,6.50
2018-11-01T23:25:51.134Z,6.60
2018-11-01T23:28:26.270Z,6.60
2018-11-01T23:31:00.706Z,6.60
2018-11-01T23:33:35.418Z,6.60
2018-11-01T23:36:10.036Z,6.60
2018-11-01T23:38:50.333Z,6.60
2018-11-01T23:41:30.942Z,6.50
2018-11-01T23:44:12.203Z,6.50
2018-11-01T23:46:51.905Z,6.60
2018-11-01T23:49:28.415Z,6.50
2018-11-01T23:52:06.582Z,6.50
2018-11-01T23:54:41.044Z,6.50
2018-11-01T23:57:16.185Z,6.60
2018-11-01T23:59:50.912Z,6.60
